NCAR-RAP Real-Time Weather Data

Output produced by METARs form (27 July 2017  18:45 UTC)
found at http://weather.rap.ucar.edu/surface/
 
Conditions at: KSPG observed 27 July 2017  17:53 UTC
Temperature: 32.2°C (90°F)
Dewpoint: 21.7°C (71°F) [RH = 54%]
Pressure (altimeter): 30.00 inches Hg (1016.0 mb)
[Sea-level pressure: 1015.7 mb]
Winds: from the W (280 degrees) at 10 MPH (9 knots; 4.7 m/s)
Visibility: 10 or more miles (16+ km)
Ceiling: at least 12,000 feet AGL
Clouds: sky clear below 12,000 feet AGL
Present Weather: no significant weather observed at this time
KSPG 271753Z 28009KT 10SM CLR 32/22 A3000 RMK AO2 LTG DSNT E AND SE SLP157 T03220217 10322 20283 58008

Conditions at: KSPG observed 27 July 2017  16:53 UTC
Temperature: 32.2°C (90°F)
Dewpoint: 23.9°C (75°F) [RH = 62%]
Pressure (altimeter): 30.01 inches Hg (1016.3 mb)
[Sea-level pressure: 1016.2 mb]
Winds: from the WSW (250 degrees) at 7 MPH (6 knots; 3.1 m/s)
Visibility: 10 or more miles (16+ km)
Ceiling: at least 12,000 feet AGL
Clouds: sky clear below 12,000 feet AGL
Present Weather: no significant weather observed at this time
KSPG 271653Z 25006KT 10SM CLR 32/24 A3001 RMK AO2 SLP162 T03220239

Conditions at: KSPG observed 27 July 2017  15:53 UTC
Temperature: 30.6°C (87°F)
Dewpoint: 25.0°C (77°F) [RH = 72%]
Pressure (altimeter): 30.02 inches Hg (1016.7 mb)
[Sea-level pressure: 1016.5 mb]
Winds: from the SSE (150 degrees) at 8 MPH (7 knots; 3.6 m/s)
Visibility: 10 or more miles (16+ km)
Ceiling: at least 12,000 feet AGL
Clouds: scattered clouds at 3200 feet AGL
Present Weather: no significant weather observed at this time
KSPG 271553Z 15007KT 10SM SCT032 31/25 A3002 RMK AO2 SLP165 T03060250

Conditions at: KSPG observed 27 July 2017  14:53 UTC
Temperature: 30.6°C (87°F)
Dewpoint: 25.0°C (77°F) [RH = 72%]
Pressure (altimeter): 30.02 inches Hg (1016.7 mb)
[Sea-level pressure: 1016.5 mb]
Winds: from the SSE (160 degrees) at 8 MPH (7 knots; 3.6 m/s)
Visibility: 10 or more miles (16+ km)
Ceiling: at least 12,000 feet AGL
Clouds: sky clear below 12,000 feet AGL
Present Weather: no significant weather observed at this time
KSPG 271453Z 16007KT 10SM CLR 31/25 A3002 RMK AO2 SLP165 T03060250 58000

Conditions at: KSPG observed 27 July 2017  13:53 UTC
Temperature: 30.0°C (86°F)
Dewpoint: 25.0°C (77°F) [RH = 75%]
Pressure (altimeter): 30.02 inches Hg (1016.7 mb)
[Sea-level pressure: 1016.6 mb]
Winds: from the SSW (200 degrees) at 13 MPH (11 knots; 5.7 m/s)
Visibility: 10 or more miles (16+ km)
Ceiling: at least 12,000 feet AGL
Clouds: few clouds at 1900 feet AGL
few clouds at 2700 feet AGL
Present Weather: no significant weather observed at this time
KSPG 271353Z 20011KT 10SM FEW019 FEW027 30/25 A3002 RMK AO2 SLP166 T03000250

Conditions at: KSPG observed 27 July 2017  13:01 UTC
Temperature: 28.9°C (84°F)
Dewpoint: 25.0°C (77°F) [RH = 80%]
Pressure (altimeter): 30.03 inches Hg (1017.0 mb)
Winds: from the S (180 degrees) at 12 MPH (10 knots; 5.2 m/s)
Visibility: 10 or more miles (16+ km)
Ceiling: 3200 feet AGL
Clouds: few clouds at 2500 feet AGL
broken clouds at 3200 feet AGL
Present Weather: no significant weather observed at this time
KSPG 271301Z 18010KT 10SM FEW025 BKN032 29/25 A3003 RMK AO2 LTG DSNT S T02890250

Conditions at: KSPG observed 27 July 2017  12:53 UTC
Temperature: 29.4°C (85°F)
Dewpoint: 25.0°C (77°F) [RH = 77%]
Pressure (altimeter): 30.03 inches Hg (1017.0 mb)
[Sea-level pressure: 1016.9 mb]
Winds: from the S (190 degrees) at 10 MPH (9 knots; 4.7 m/s)
Visibility: 10 or more miles (16+ km)
Ceiling: 3200 feet AGL
Clouds: scattered clouds at 2500 feet AGL
broken clouds at 3200 feet AGL
Present Weather: VCTS  (thunderstorm in vicinity)
KSPG 271253Z 19009KT 10SM VCTS SCT025 BKN032 29/25 A3003 RMK AO2 LTG DSNT S SLP169 T02940250

Conditions at: KSPG observed 27 July 2017  12:45 UTC
Temperature: 28.9°C (84°F)
Dewpoint: 25.0°C (77°F) [RH = 80%]
Pressure (altimeter): 30.03 inches Hg (1017.0 mb)
Winds: from the S (180 degrees) at 12 MPH (10 knots; 5.2 m/s)
Visibility: 10 or more miles (16+ km)
Ceiling: 2400 feet AGL
Clouds: broken clouds at 2400 feet AGL
overcast cloud deck at 3200 feet AGL
Present Weather: VCTS  (thunderstorm in vicinity)
KSPG 271245Z 18010KT 10SM VCTS BKN024 OVC032 29/25 A3003 RMK AO2 LTG DSNT S T02890250

Conditions at: KSPG observed 27 July 2017  12:14 UTC
Temperature: 30.0°C (86°F)
Dewpoint: 24.4°C (76°F) [RH = 72%]
Pressure (altimeter): 30.02 inches Hg (1016.7 mb)
Winds: variable direction winds at 5 MPH (4 knots; 2.1 m/s)
Visibility: 10 or more miles (16+ km)
Ceiling: at least 12,000 feet AGL
Clouds: scattered clouds at 8000 feet AGL
Present Weather: no significant weather observed at this time
KSPG 271214Z VRB04KT 10SM SCT080 30/24 A3002 RMK AO2 LTG DSNT S T03000244

Conditions at: KSPG observed 27 July 2017  11:53 UTC
Temperature: 30.0°C (86°F)
Dewpoint: 25.0°C (77°F) [RH = 75%]
Pressure (altimeter): 30.02 inches Hg (1016.7 mb)
[Sea-level pressure: 1016.5 mb]
Winds: calm
Visibility: 10 or more miles (16+ km)
Ceiling: at least 12,000 feet AGL
Clouds: scattered clouds at 8000 feet AGL
Present Weather: VCTS  (thunderstorm in vicinity)
KSPG 271153Z 00000KT 10SM VCTS SCT080 30/25 A3002 RMK AO2 LTG DSNT S AND SW SLP165 T03000250 10300 20289 53008

Conditions at: KSPG observed 27 July 2017  10:53 UTC
Temperature: 28.9°C (84°F)
Dewpoint: 25.6°C (78°F) [RH = 82%]
Pressure (altimeter): 30.01 inches Hg (1016.3 mb)
[Sea-level pressure: 1016.0 mb]
Winds: calm
Visibility: 10 or more miles (16+ km)
Ceiling: 7000 feet AGL
Clouds: scattered clouds at 2500 feet AGL
broken clouds at 7000 feet AGL
Present Weather: no significant weather observed at this time
KSPG 271053Z 00000KT 10SM SCT025 BKN070 29/26 A3001 RMK AO2 LTG DSNT S SLP160 T02890256

Conditions at: KSPG observed 27 July 2017  09:53 UTC
Temperature: 28.9°C (84°F)
Dewpoint: 25.0°C (77°F) [RH = 80%]
Pressure (altimeter): 30.00 inches Hg (1016.0 mb)
[Sea-level pressure: 1015.8 mb]
Winds: calm
Visibility: 10 or more miles (16+ km)
Ceiling: at least 12,000 feet AGL
Clouds: sky clear below 12,000 feet AGL
Present Weather: automated observation with no human augmentation;
there may or may not be significant weather present at this time
KSPG 270953Z AUTO 00000KT 10SM CLR 29/25 A3000 RMK AO2 SLP158 T02890250

Conditions at: KSPG observed 27 July 2017  08:53 UTC
Temperature: 29.4°C (85°F)
Dewpoint: 25.0°C (77°F) [RH = 77%]
Pressure (altimeter): 30.00 inches Hg (1016.0 mb)
[Sea-level pressure: 1015.7 mb]
Winds: from the N (360 degrees) at 3 MPH (3 knots; 1.6 m/s)
Visibility: 10 or more miles (16+ km)
Ceiling: at least 12,000 feet AGL
Clouds: few clouds at 6000 feet AGL
Present Weather: automated observation with no human augmentation;
there may or may not be significant weather present at this time
KSPG 270853Z AUTO 36003KT 10SM FEW060 29/25 A3000 RMK AO2 SLP157 T02940250 55006

Conditions at: KSPG observed 27 July 2017  07:53 UTC
Temperature: 28.9°C (84°F)
Dewpoint: 24.4°C (76°F) [RH = 77%]
Pressure (altimeter): 29.99 inches Hg (1015.7 mb)
[Sea-level pressure: 1015.6 mb]
Winds: from the SSW (200 degrees) at 5 MPH (4 knots; 2.1 m/s)
Visibility: 10 or more miles (16+ km)
Ceiling: at least 12,000 feet AGL
Clouds: few clouds at 6000 feet AGL
Present Weather: automated observation with no human augmentation;
there may or may not be significant weather present at this time
KSPG 270753Z AUTO 20004KT 10SM FEW060 29/24 A2999 RMK AO2 SLP156 T02890244

Conditions at: KSPG observed 27 July 2017  06:53 UTC
Temperature: 29.4°C (85°F)
Dewpoint: 25.0°C (77°F) [RH = 77%]
Pressure (altimeter): 30.00 inches Hg (1016.0 mb)
[Sea-level pressure: 1015.7 mb]
Winds: from the SSE (160 degrees) at 10 MPH (9 knots; 4.7 m/s)
Visibility: 10 or more miles (16+ km)
Ceiling: at least 12,000 feet AGL
Clouds: sky clear below 12,000 feet AGL
Present Weather: automated observation with no human augmentation;
there may or may not be significant weather present at this time
KSPG 270653Z AUTO 16009KT 10SM CLR 29/25 A3000 RMK AO2 SLP157 T02940250

Conditions at: KSPG observed 27 July 2017  05:53 UTC
Temperature: 30.0°C (86°F)
Dewpoint: 24.4°C (76°F) [RH = 72%]
Pressure (altimeter): 30.02 inches Hg (1016.7 mb)
[Sea-level pressure: 1016.3 mb]
Winds: calm
Visibility: 10 or more miles (16+ km)
Ceiling: 6000 feet AGL
Clouds: broken clouds at 6000 feet AGL
Present Weather: automated observation with no human augmentation;
there may or may not be significant weather present at this time
KSPG 270553Z AUTO 00000KT 10SM BKN060 30/24 A3002 RMK AO2 SLP163 T03000244 10322 20300 58006

Conditions at: KSPG observed 27 July 2017  04:53 UTC
Temperature: 30.0°C (86°F)
Dewpoint: 24.4°C (76°F) [RH = 72%]
Pressure (altimeter): 30.03 inches Hg (1017.0 mb)
[Sea-level pressure: 1016.9 mb]
Winds: calm
Visibility: 10 or more miles (16+ km)
Ceiling: at least 12,000 feet AGL
Clouds: few clouds at 6500 feet AGL
Present Weather: automated observation with no human augmentation;
there may or may not be significant weather present at this time
KSPG 270453Z AUTO 00000KT 10SM FEW065 30/24 A3003 RMK AO2 SLP169 T03000244 403440283

Conditions at: KSPG observed 27 July 2017  03:53 UTC
Temperature: 30.0°C (86°F)
Dewpoint: 23.9°C (75°F) [RH = 70%]
Pressure (altimeter): 30.03 inches Hg (1017.0 mb)
[Sea-level pressure: 1016.8 mb]
Winds: calm
Visibility: 10 or more miles (16+ km)
Ceiling: at least 12,000 feet AGL
Clouds: scattered clouds at 6000 feet AGL
Present Weather: automated observation with no human augmentation;
there may or may not be significant weather present at this time
KSPG 270353Z AUTO 00000KT 10SM SCT060 30/24 A3003 RMK AO2 SLP168 T03000239

Conditions at: KSPG observed 27 July 2017  02:53 UTC
Temperature: 30.6°C (87°F)
Dewpoint: 24.4°C (76°F) [RH = 70%]
Pressure (altimeter): 30.03 inches Hg (1017.0 mb)
[Sea-level pressure: 1016.9 mb]
Winds: from the N (350 degrees) at 9 MPH (8 knots; 4.2 m/s)
Visibility: 10 or more miles (16+ km)
Ceiling: at least 12,000 feet AGL
Clouds: sky clear below 12,000 feet AGL
Present Weather: automated observation with no human augmentation;
there may or may not be significant weather present at this time
KSPG 270253Z AUTO 35008KT 10SM CLR 31/24 A3003 RMK AO2 SLP169 T03060244 53013

Conditions at: KSPG observed 27 July 2017  01:53 UTC
Temperature: 30.6°C (87°F)
Dewpoint: 23.9°C (75°F) [RH = 68%]
Pressure (altimeter): 30.01 inches Hg (1016.3 mb)
[Sea-level pressure: 1016.0 mb]
Winds: from the N (350 degrees) at 9 MPH (8 knots; 4.2 m/s)
Visibility: 10 or more miles (16+ km)
Ceiling: at least 12,000 feet AGL
Clouds: sky clear below 12,000 feet AGL
Present Weather: automated observation with no human augmentation;
there may or may not be significant weather present at this time
KSPG 270153Z AUTO 35008KT 10SM CLR 31/24 A3001 RMK AO2 SLP160 T03060239

Conditions at: KSPG observed 27 July 2017  00:53 UTC
Temperature: 31.1°C (88°F)
Dewpoint: 23.3°C (74°F) [RH = 63%]
Pressure (altimeter): 30.01 inches Hg (1016.3 mb)
[Sea-level pressure: 1016.0 mb]
Winds: from the N (360 degrees) at 8 MPH (7 knots; 3.6 m/s)
Visibility: 10 or more miles (16+ km)
Ceiling: at least 12,000 feet AGL
Clouds: sky clear below 12,000 feet AGL
Present Weather: automated observation with no human augmentation;
there may or may not be significant weather present at this time
KSPG 270053Z AUTO 36007KT 10SM CLR 31/23 A3001 RMK AO2 SLP160 T03110233

Conditions at: KSPG observed 26 July 2017  23:53 UTC
Temperature: 32.2°C (90°F)
Dewpoint: 22.2°C (72°F) [RH = 56%]
Pressure (altimeter): 29.99 inches Hg (1015.7 mb)
[Sea-level pressure: 1015.6 mb]
Winds: from the N (350 degrees) at 8 MPH (7 knots; 3.6 m/s)
Visibility: 10 or more miles (16+ km)
Ceiling: at least 12,000 feet AGL
Clouds: sky clear below 12,000 feet AGL
Present Weather: no significant weather observed at this time
KSPG 262353Z 35007KT 10SM CLR 32/22 A2999 RMK AO2 SLP156 T03220222 10344 20317 55004

Conditions at: KSPG observed 26 July 2017  22:53 UTC
Temperature: 33.3°C (92°F)
Dewpoint: 22.8°C (73°F) [RH = 54%]
Pressure (altimeter): 29.99 inches Hg (1015.7 mb)
[Sea-level pressure: 1015.4 mb]
Winds: variable direction winds at 5 MPH (4 knots; 2.1 m/s)
Visibility: 10 or more miles (16+ km)
Ceiling: at least 12,000 feet AGL
Clouds: sky clear below 12,000 feet AGL
Present Weather: no significant weather observed at this time
KSPG 262253Z VRB04KT 10SM CLR 33/23 A2999 RMK AO2 SLP154 T03330228

Conditions at: KSPG observed 26 July 2017  21:53 UTC
Temperature: 33.3°C (92°F)
Dewpoint: 22.8°C (73°F) [RH = 54%]
Pressure (altimeter): 29.99 inches Hg (1015.7 mb)
[Sea-level pressure: 1015.5 mb]
Winds: from the NNW (340 degrees) at 7 MPH (6 knots; 3.1 m/s)
Visibility: 10 or more miles (16+ km)
Ceiling: at least 12,000 feet AGL
Clouds: sky clear below 12,000 feet AGL
Present Weather: no significant weather observed at this time
KSPG 262153Z 34006KT 10SM CLR 33/23 A2999 RMK AO2 SLP155 T03330228

Conditions at: KSPG observed 26 July 2017  20:53 UTC
Temperature: 34.4°C (94°F)
Dewpoint: 21.1°C (70°F) [RH = 46%]
Pressure (altimeter): 30.01 inches Hg (1016.3 mb)
[Sea-level pressure: 1016.0 mb]
Winds: calm
Visibility: 10 or more miles (16+ km)
Ceiling: at least 12,000 feet AGL
Clouds: sky clear below 12,000 feet AGL
Present Weather: no significant weather observed at this time
KSPG 262053Z 00000KT 10SM CLR 34/21 A3001 RMK AO2 SLP160 T03440211 56023

Conditions at: KSPG observed 26 July 2017  19:53 UTC
Temperature: 33.3°C (92°F)
Dewpoint: 22.2°C (72°F) [RH = 52%]
Pressure (altimeter): 30.03 inches Hg (1017.0 mb)
[Sea-level pressure: 1016.7 mb]
Winds: from the WNW (300 degrees) at 8 MPH (7 knots; 3.6 m/s)
Visibility: 10 or more miles (16+ km)
Ceiling: at least 12,000 feet AGL
Clouds: sky clear below 12,000 feet AGL
Present Weather: no significant weather observed at this time
KSPG 261953Z 30007KT 10SM CLR 33/22 A3003 RMK AO2 SLP167 T03330222

Conditions at: KSPG observed 26 July 2017  18:53 UTC
Temperature: 33.3°C (92°F)
Dewpoint: 23.9°C (75°F) [RH = 58%]
Pressure (altimeter): 30.05 inches Hg (1017.7 mb)
[Sea-level pressure: 1017.6 mb]
Winds: variable direction winds at 5 MPH (4 knots; 2.1 m/s)
Visibility: 10 or more miles (16+ km)
Ceiling: at least 12,000 feet AGL
Clouds: scattered clouds at 4500 feet AGL
Present Weather: no significant weather observed at this time
KSPG 261853Z VRB04KT 10SM SCT045 33/24 A3005 RMK AO2 SLP176 T03330239